Time;durP1;ratioP1;P1;durP2;ratioP2;P2;SDS_P1;SDS_P2;PMS_P1;PMS_P2;Temp;Humidity;BMP_temperature;BMP_pressure;BME280_temperature;BME280_humidity;BME280_pressure;Samples;Min_cycle;Max_cycle;Signal;HPM_P1;HPM_P2
2022/03/21 00:08:50;;;;;;;;;;;;;;;21.19;43.22;102648.59;20736205;27;98467;-78
2022/03/21 00:18:50;;;;;;;;;;;;;;;21.17;43.25;102653.09;20745636;27;97182;-79
2022/03/21 00:28:51;;;;;;;;;;;;;;;21.10;43.23;102645.44;20744815;27;97101;-79
2022/03/21 00:38:51;;;;;;;;;;;;;;;21.15;42.83;102647.03;20741313;28;97258;-78
2022/03/21 00:48:51;;;;;;;;;;;;;;;21.13;42.92;102641.84;20726348;28;97752;-78
2022/03/21 00:58:52;;;;;;;;;;;;;;;20.98;42.58;102632.75;20733368;28;97144;-78
2022/03/21 01:08:53;;;;;;;;;;;;;;;20.96;42.53;102632.00;20729175;27;98145;-78
2022/03/21 01:18:53;;;;;;;;;;;;;;;20.96;42.32;102632.00;20738256;27;97412;-79
2022/03/21 01:28:56;;;;;;;;;;;;;;;20.91;42.48;102629.53;20735862;27;97064;-77
2022/03/21 01:38:57;;;;;;;;;;;;;;;20.87;42.31;102625.31;20735386;28;97821;-77
2022/03/21 01:48:58;;;;;;;;;;;;;;;20.88;42.34;102616.47;20737421;28;98457;-78
2022/03/21 01:58:58;;;;;;;;;;;;;;;20.87;42.40;102611.28;20742438;28;100247;-78
2022/03/21 02:09:00;;;;;;;;;;;;;;;20.84;42.37;102611.41;20738147;28;97365;-77
2022/03/21 02:19:06;;;;;;;;;;;;;;;20.82;42.41;102605.34;20736521;27;99144;-78
2022/03/21 02:29:07;;;;;;;;;;;;;;;20.82;42.19;102605.34;20731145;28;97045;-79
2022/03/21 02:39:07;;;;;;;;;;;;;;;20.72;42.24;102603.09;20747040;27;98169;-79
2022/03/21 02:49:08;;;;;;;;;;;;;;;20.73;42.35;102601.31;20748852;28;97273;-79
2022/03/21 02:59:09;;;;;;;;;;;;;;;20.71;42.57;102593.44;20742473;28;97726;-78
2022/03/21 03:09:09;;;;;;;;;;;;;;;20.72;42.13;102610.13;20726043;27;98552;-79
2022/03/21 03:19:10;;;;;;;;;;;;;;;20.67;42.43;102606.81;20744976;28;97287;-78
2022/03/21 03:29:10;;;;;;;;;;;;;;;20.66;42.25;102603.28;20738298;27;97321;-78
2022/03/21 03:39:11;;;;;;;;;;;;;;;20.61;42.34;102600.84;20726426;28;96923;-78
2022/03/21 03:49:11;;;;;;;;;;;;;;;20.61;42.00;102610.53;20742879;27;97570;-78
2022/03/21 03:59:13;;;;;;;;;;;;;;;20.58;42.02;102608.88;20739699;28;98087;-78
2022/03/21 04:09:14;;;;;;;;;;;;;;;20.52;41.51;102611.75;20722566;27;97915;-78
2022/03/21 04:19:14;;;;;;;;;;;;;;;20.48;42.15;102616.28;20737577;28;97653;-78
2022/03/21 04:29:15;;;;;;;;;;;;;;;20.46;42.27;102623.38;20736992;27;99325;-78
2022/03/21 04:39:15;;;;;;;;;;;;;;;20.47;42.05;102624.25;20738401;27;100537;-77
2022/03/21 04:49:16;;;;;;;;;;;;;;;20.47;41.85;102632.97;20737071;27;97305;-79
2022/03/21 04:59:17;;;;;;;;;;;;;;;20.41;42.18;102643.75;20733463;27;97986;-77
2022/03/21 05:09:17;;;;;;;;;;;;;;;20.57;42.44;102641.38;20724431;27;98245;-77
2022/03/21 05:19:18;;;;;;;;;;;;;;;20.76;44.51;102635.41;20735872;28;98109;-78
2022/03/21 05:40:31;;;;;;;;;;;;;;;20.97;43.66;102649.50;20736699;27;98366;-76
2022/03/21 05:49:58;;;;;;;;;;;;;;;21.04;43.09;102655.38;20728298;28;97854;-78
2022/03/21 06:10:17;;;;;;;;;;;;;;;21.14;42.63;102671.66;20727766;28;101275;-77
2022/03/21 06:20:18;;;;;;;;;;;;;;;21.20;42.44;102682.81;20734287;28;97097;-76
2022/03/21 06:30:18;;;;;;;;;;;;;;;21.26;42.65;102685.19;20739024;28;97138;-77
2022/03/21 06:40:20;;;;;;;;;;;;;;;21.31;42.45;102682.34;20741411;27;97523;-76
2022/03/21 06:50:20;;;;;;;;;;;;;;;21.38;41.94;102691.72;20717309;27;98306;-77
2022/03/21 07:00:20;;;;;;;;;;;;;;;21.42;41.72;102692.44;20731819;28;98044;-76
2022/03/21 07:10:21;;;;;;;;;;;;;;;21.44;41.53;102696.72;20745285;28;96980;-76
2022/03/21 07:20:24;;;;;;;;;;;;;;;21.49;41.65;102685.16;20745589;28;96989;-77
2022/03/21 07:30:26;;;;;;;;;;;;;;;21.52;41.61;102700.81;20750830;28;97012;-78
2022/03/21 07:40:26;;;;;;;;;;;;;;;21.57;41.96;102706.81;20749763;27;97171;-78
2022/03/21 07:50:27;;;;;;;;;;;;;;;21.58;41.75;102709.38;20748938;27;97589;-79
2022/03/21 08:00:28;;;;;;;;;;;;;;;21.62;42.10;102701.31;20734646;28;97331;-79
2022/03/21 08:10:29;;;;;;;;;;;;;;;21.64;41.78;102696.84;20760579;27;98223;-80
2022/03/21 08:20:38;;;;;;;;;;;;;;;21.68;42.11;102701.06;20757251;27;98770;-80
2022/03/21 08:30:38;;;;;;;;;;;;;;;21.69;41.73;102690.47;20762158;28;97358;-79
2022/03/21 08:40:39;;;;;;;;;;;;;;;21.73;42.21;102680.63;20763184;27;97517;-79
2022/03/21 08:50:39;;;;;;;;;;;;;;;;;;20723534;27;97040;-78
2022/03/21 09:00:40;;;;;;;;;;;;;;;21.77;42.32;102673.44;20764879;28;97210;-78
2022/03/21 09:10:41;;;;;;;;;;;;;;;21.76;42.62;102656.75;20765162;28;97707;-78
2022/03/21 09:20:41;;;;;;;;;;;;;;;21.78;42.22;102654.06;20747885;28;97787;-78
2022/03/21 09:30:42;;;;;;;;;;;;;;;21.80;42.65;102647.81;20732646;28;97031;-79
2022/03/21 09:40:42;;;;;;;;;;;;;;;21.83;42.58;102646.81;20750633;28;96948;-79
2022/03/21 09:50:44;;;;;;;;;;;;;;;21.85;42.49;102642.28;20759150;28;97971;-78
2022/03/21 10:00:47;;;;;;;;;;;;;;;21.90;42.41;102637.69;20747095;28;96764;-80
2022/03/21 10:10:55;;;;;;;;;;;;;;;21.92;42.16;102617.38;20754471;28;97779;-81
2022/03/21 10:21:08;;;;;;;;;;;;;;;21.96;42.24;102604.88;20750324;28;96920;-78
2022/03/21 10:31:08;;;;;;;;;;;;;;;21.99;42.59;102605.59;20739881;28;97498;-79
2022/03/21 10:41:09;;;;;;;;;;;;;;;22.03;42.61;102586.09;20770012;28;96906;-78
2022/03/21 10:51:13;;;;;;;;;;;;;;;22.07;42.71;102566.53;20762501;28;97186;-78
2022/03/21 11:01:15;;;;;;;;;;;;;;;22.14;42.79;102568.88;20758927;28;99140;-80
2022/03/21 11:11:15;;;;;;;;;;;;;;;22.20;42.81;102551.00;20776274;27;98966;-79
2022/03/21 11:21:18;;;;;;;;;;;;;;;22.27;42.35;102524.31;20764766;28;96837;-79
2022/03/21 11:31:51;;;;;;;;;;;;;;;22.32;42.46;102517.03;20765436;28;97910;-79
2022/03/21 11:41:55;;;;;;;;;;;;;;;22.38;42.12;102504.41;20705915;27;97463;-78
2022/03/21 11:51:56;;;;;;;;;;;;;;;22.43;41.42;102500.69;20734032;28;96826;-78
2022/03/21 12:01:57;;;;;;;;;;;;;;;22.55;41.52;102490.38;20716885;28;98415;-79
2022/03/21 12:11:59;;;;;;;;;;;;;;;22.74;42.21;102465.69;20740227;28;97665;-79
2022/03/21 12:22:18;;;;;;;;;;;;;;;22.90;42.42;102449.03;20741167;28;98181;-77
2022/03/21 12:32:22;;;;;;;;;;;;;;;23.01;42.75;102429.03;20729150;28;97070;-75
2022/03/21 12:42:26;;;;;;;;;;;;;;;23.11;42.95;102425.94;20713263;27;98098;-76
2022/03/21 12:52:34;;;;;;;;;;;;;;;23.17;42.56;102413.25;20739084;28;97142;-77
2022/03/21 13:02:34;;;;;;;;;;;;;;;23.27;42.30;102403.03;20736212;27;96971;-77
2022/03/21 13:12:35;;;;;;;;;;;;;;;23.33;42.08;102392.13;20760222;28;96901;-75
2022/03/21 13:22:36;;;;;;;;;;;;;;;23.40;41.82;102387.38;20761449;27;102051;-77
2022/03/21 13:32:44;;;;;;;;;;;;;;;23.44;41.66;102374.84;20735815;28;97061;-77
2022/03/21 13:42:44;;;;;;;;;;;;;;;23.47;41.71;102367.56;20744726;28;97187;-77
2022/03/21 13:52:49;;;;;;;;;;;;;;;23.50;41.44;102348.03;20741131;28;97464;-75
2022/03/21 14:02:49;;;;;;;;;;;;;;;23.55;41.35;102345.16;20746483;28;98360;-76
2022/03/21 14:12:51;;;;;;;;;;;;;;;23.58;41.15;102335.25;20727906;28;99658;-76
2022/03/21 14:22:51;;;;;;;;;;;;;;;23.60;41.26;102337.78;20739293;28;97722;-76
2022/03/21 14:32:51;;;;;;;;;;;;;;;23.63;41.11;102325.25;20740709;28;97742;-75
2022/03/21 14:42:52;;;;;;;;;;;;;;;23.62;40.99;102312.09;20749628;28;98680;-76
2022/03/21 14:52:54;;;;;;;;;;;;;;;23.62;41.13;102299.75;20757769;27;97101;-76
2022/03/21 15:02:54;;;;;;;;;;;;;;;23.62;41.03;102302.38;21045672;22;98373;-76
2022/03/21 15:12:55;;;;;;;;;;;;;;;23.60;41.02;102298.97;21609552;22;99022;-75
2022/03/21 15:22:57;;;;;;;;;;;;;;;23.60;40.95;102293.69;20675260;28;96923;-75
2022/03/21 15:32:57;;;;;;;;;;;;;;;23.56;40.71;102289.53;20514620;28;97725;-74
2022/03/21 15:42:57;;;;;;;;;;;;;;;23.53;40.52;102278.25;20483786;28;97747;-74
2022/03/21 15:52:59;;;;;;;;;;;;;;;23.49;40.44;102278.44;20523302;28;97443;-76
2022/03/21 16:03:00;;;;;;;;;;;;;;;23.44;36.38;102287.59;20531056;28;97738;-84
2022/03/21 16:13:02;;;;;;;;;;;;;;;23.51;31.89;102286.28;20529533;28;97229;-81
2022/03/21 16:23:05;;;;;;;;;;;;;;;23.42;31.98;102287.66;20529938;28;96891;-81
2022/03/21 16:33:05;;;;;;;;;;;;;;;23.40;35.22;102300.13;20528125;28;97445;-82
2022/03/21 16:43:05;;;;;;;;;;;;;;;23.29;35.94;102284.88;20547205;28;97213;-80
2022/03/21 16:53:06;;;;;;;;;;;;;;;23.15;36.37;102285.59;20531013;28;97201;-79
2022/03/21 17:03:06;;;;;;;;;;;;;;;23.05;37.11;102289.69;20511864;28;97643;-78
2022/03/21 17:13:07;;;;;;;;;;;;;;;22.99;37.62;102284.75;20516763;28;97013;-77
2022/03/21 17:23:07;;;;;;;;;;;;;;;;;;;;;
2022/03/21 17:33:08;;;;;;;;;;;;;;;22.89;38.76;102302.03;20512798;28;97436;-79
2022/03/21 17:43:11;;;;;;;;;;;;;;;22.91;39.97;102294.88;20520598;28;97199;-80
2022/03/21 17:53:26;;;;;;;;;;;;;;;22.90;40.66;102301.09;20527976;28;97007;-80
2022/03/21 18:03:27;;;;;;;;;;;;;;;22.90;41.24;102309.91;20525896;28;97248;-80
2022/03/21 18:13:30;;;;;;;;;;;;;;;22.89;42.13;102321.38;20529493;28;97152;-79
2022/03/21 18:23:31;;;;;;;;;;;;;;;22.87;43.99;102323.25;20521493;28;98765;-80
2022/03/21 18:33:31;;;;;;;;;;;;;;;22.86;45.30;102332.97;20534037;28;96965;-80
2022/03/21 18:43:32;;;;;;;;;;;;;;;22.86;44.47;102338.25;20512781;28;99237;-77
2022/03/21 18:53:32;;;;;;;;;;;;;;;22.43;37.87;102337.88;20500073;28;97914;-81
2022/03/21 19:03:38;;;;;;;;;;;;;;;22.55;41.71;102350.44;20554402;28;97138;-80
2022/03/21 19:13:38;;;;;;;;;;;;;;;22.62;42.67;102358.91;20548482;28;98831;-77
2022/03/21 19:23:43;;;;;;;;;;;;;;;22.59;42.61;102372.25;20522483;28;101174;-79
2022/03/21 19:33:43;;;;;;;;;;;;;;;22.49;41.96;102378.97;20531373;28;97135;-78
2022/03/21 19:43:44;;;;;;;;;;;;;;;22.49;41.91;102369.22;20542389;28;96856;-79
2022/03/21 19:53:44;;;;;;;;;;;;;;;22.41;41.92;102366.16;20522094;28;97038;-78
2022/03/21 20:03:45;;;;;;;;;;;;;;;22.42;41.96;102377.56;20485915;28;98273;-77
2022/03/21 20:13:45;;;;;;;;;;;;;;;22.38;41.97;102371.59;20488629;28;98624;-77
2022/03/21 20:23:45;;;;;;;;;;;;;;;22.34;42.69;102364.72;20497096;28;99356;-77
2022/03/21 20:33:47;;;;;;;;;;;;;;;22.31;42.81;102373.63;20496984;28;96972;-78
2022/03/21 20:43:47;;;;;;;;;;;;;;;22.29;42.83;102374.66;20497390;28;98245;-78
2022/03/21 20:53:48;;;;;;;;;;;;;;;22.30;42.64;102379.88;20494552;28;98702;-78
2022/03/21 21:03:50;;;;;;;;;;;;;;;22.26;43.23;102377.47;20508471;28;97831;-78
2022/03/21 21:13:50;;;;;;;;;;;;;;;22.21;42.99;102381.16;20499485;28;97785;-78
2022/03/21 21:23:51;;;;;;;;;;;;;;;22.21;43.29;102382.97;20512572;28;97993;-78
2022/03/21 21:33:53;;;;;;;;;;;;;;;22.20;43.31;102381.25;20503311;28;101650;-78
2022/03/21 21:43:53;;;;;;;;;;;;;;;22.14;43.25;102377.16;20502645;28;97390;-78
2022/03/21 21:53:54;;;;;;;;;;;;;;;22.15;43.02;102383.28;20489624;28;98947;-77
2022/03/21 22:03:56;;;;;;;;;;;;;;;22.11;43.19;102379.09;20491386;28;97468;-78
2022/03/21 22:13:57;;;;;;;;;;;;;;;22.04;43.33;102384.63;20478147;28;98061;-77
2022/03/21 22:23:57;;;;;;;;;;;;;;;22.03;43.40;102379.44;20489115;28;99726;-78
2022/03/21 22:33:58;;;;;;;;;;;;;;;21.99;43.24;102384.03;20493404;28;101410;-78
2022/03/21 22:54:17;;;;;;;;;;;;;;;22.00;43.11;102385.72;20509254;28;97075;-78
2022/03/21 23:04:17;;;;;;;;;;;;;;;21.98;43.30;102386.75;20511441;28;97807;-77
2022/03/21 23:14:18;;;;;;;;;;;;;;;21.98;43.90;102386.75;20551925;28;97548;-77
2022/03/21 23:24:19;;;;;;;;;;;;;;;21.94;43.90;102391.31;20584642;28;100959;-78
2022/03/21 23:34:20;;;;;;;;;;;;;;;21.92;43.31;102398.44;20577766;28;97055;-77
2022/03/21 23:44:21;;;;;;;;;;;;;;;21.91;43.75;102399.38;20556463;28;97703;-77
2022/03/21 23:54:21;;;;;;;;;;;;;;;21.86;43.24;102396.09;20582983;28;97050;-77
